Home   Weather   Germany   Sondershausen   Past weeks
Flag for Germany

Past Weather in Sondershausen, Thuringia, Germany — Yesterday and Last 2 Weeks

Currently: 50 °F. Clear. (Weather station: Erfurt-Bindersleben, Germany). See more current weather

Past Weather in Sondershausen — Graph

°F

Sondershausen Temperature Yesterday

Maximum temperature yesterday: 66 °F (at 3:50 pm)
Minimum temperature yesterday: 50 °F (at 2:50 am)
Average temperature yesterday: 57 °F

High & Low Weather Summary for the Past Weeks

 TemperatureHumidityPressure
High81 °F (Jun 3, 3:50 pm)100% (May 30, 3:20 am)30.33 "Hg (May 30, 3:20 am)
Low41 °F (May 30, 3:20 am)30% (Jun 3, 4:20 pm)30.01 "Hg (Jun 1, 7:50 pm)
Average63 °F74%30.15 "Hg
* Reported May 30 2:20 am — Jun 14 2:20 am, Sondershausen. Weather by CustomWeather, © 2021

Note: Actual official high and low records may vary slightly from our data, if they occured in-between our weather recording intervals... More about our weather records

Sondershausen Weather History for the Previous 24 Hours

Scroll right to see more
 ConditionsComfort  
Time TempWeatherWind HumidityBarometerVisibility
2:20 am
Mon, Jun 14
50 °FClear.8 mph88%30.27 "Hg10 mi
1:50 am52 °FClear.7 mph82%30.30 "Hg10 mi
1:20 am54 °FClear.6 mph77%30.30 "Hg10 mi
12:50 am57 °FClear.3 mph67%30.30 "Hg10 mi
12:20 am59 °FClear.2 mph63%30.30 "Hg10 mi
11:50 pm
Sun, Jun 13
57 °FClear.2 mph67%30.30 "Hg10 mi
11:20 pm57 °FClear.5 mph67%30.30 "Hg10 mi
10:50 pm55 °FClear.7 mph72%30.30 "Hg10 mi
10:20 pm55 °FClear.7 mph72%30.30 "Hg10 mi
9:50 pm57 °FClear.7 mph72%30.30 "Hg10 mi
9:20 pm59 °FSunny.6 mph68%30.30 "Hg10 mi
8:50 pm61 °FSunny.5 mph68%30.30 "Hg10 mi
8:20 pm63 °FSunny.5 mph64%30.30 "Hg10 mi
7:50 pm64 °FPassing clouds.5 mph56%30.30 "HgN/A
7:20 pm64 °FPassing clouds.6 mph52%30.30 "HgN/A
6:50 pm64 °FPassing clouds.7 mph49%30.30 "HgN/A
6:20 pm66 °FPassing clouds.7 mph49%30.30 "HgN/A
5:50 pm64 °FPassing clouds.8 mph52%30.30 "HgN/A
5:20 pm66 °FPassing clouds.7 mph52%30.30 "HgN/A
4:50 pm64 °FPassing clouds.7 mph52%30.30 "HgN/A
4:20 pm64 °FScattered clouds.8 mph52%30.33 "HgN/A
3:50 pm66 °FScattered clouds.9 mph52%30.33 "HgN/A
3:20 pm64 °FScattered clouds.10 mph52%30.33 "HgN/A
2:50 pm64 °FScattered clouds.12 mph52%30.33 "HgN/A
2:20 pm63 °FScattered clouds.9 mph56%30.33 "HgN/A
1:50 pm61 °FPartly sunny.8 mph55%30.33 "HgN/A
1:20 pm59 °FPartly sunny.8 mph63%30.33 "HgN/A
12:50 pm61 °FPartly sunny.9 mph55%30.33 "HgN/A
12:20 pm57 °FPartly sunny.8 mph63%30.33 "HgN/A
11:50 am57 °FPartly sunny.8 mph59%30.33 "HgN/A
11:20 am57 °FPartly sunny.9 mph63%30.33 "HgN/A
10:50 am57 °FScattered clouds.8 mph59%30.33 "HgN/A
10:20 am55 °FScattered clouds.7 mph63%30.33 "HgN/A
9:50 am55 °FScattered clouds.9 mph63%30.33 "HgN/A
9:20 am55 °FScattered clouds.8 mph63%30.30 "HgN/A
8:50 am54 °FScattered clouds.7 mph72%30.30 "HgN/A
8:20 am54 °FPassing clouds.7 mph77%30.30 "HgN/A
7:50 am54 °FPassing clouds.8 mph72%30.30 "HgN/A
7:20 am52 °FPassing clouds.8 mph77%30.27 "HgN/A
6:50 am52 °FPassing clouds.9 mph77%30.27 "HgN/A
6:20 am50 °FScattered clouds.8 mph82%30.27 "HgN/A
5:50 am52 °FPartly sunny.7 mph77%30.27 "HgN/A
5:20 am50 °FPartly sunny.8 mph88%30.24 "HgN/A
4:50 am50 °FPassing clouds.6 mph88%30.24 "HgN/A
4:20 am52 °FPassing clouds.9 mph82%30.24 "HgN/A
Weather by CustomWeather, © 2021

See weather overview